sensor_id;sensor_type;location;lat;lon;timestamp;P1;durP1;ratioP1;P2;durP2;ratioP2
50683;SDS011;36654;45.042;38.994;2022-10-16T00:01:25;10.20;;;4.45;;
50683;SDS011;36654;45.042;38.994;2022-10-16T00:03:53;11.63;;;5.28;;
50683;SDS011;36654;45.042;38.994;2022-10-16T00:06:20;6.90;;;4.32;;
50683;SDS011;36654;45.042;38.994;2022-10-16T00:08:47;7.55;;;4.68;;
50683;SDS011;36654;45.042;38.994;2022-10-16T00:11:15;7.88;;;5.15;;
50683;SDS011;36654;45.042;38.994;2022-10-16T00:13:45;6.90;;;4.65;;
50683;SDS011;36654;45.042;38.994;2022-10-16T00:16:12;9.18;;;5.35;;
50683;SDS011;36654;45.042;38.994;2022-10-16T00:18:38;6.95;;;4.47;;
50683;SDS011;36654;45.042;38.994;2022-10-16T00:21:06;8.13;;;5.03;;
50683;SDS011;36654;45.042;38.994;2022-10-16T00:23:37;7.05;;;4.72;;
50683;SDS011;36654;45.042;38.994;2022-10-16T00:26:04;6.63;;;5.20;;
50683;SDS011;36654;45.042;38.994;2022-10-16T00:28:31;6.18;;;4.13;;
50683;SDS011;36654;45.042;38.994;2022-10-16T00:30:57;7.00;;;4.53;;
50683;SDS011;36654;45.042;38.994;2022-10-16T00:33:24;6.10;;;4.30;;
50683;SDS011;36654;45.042;38.994;2022-10-16T00:35:49;9.45;;;4.82;;
50683;SDS011;36654;45.042;38.994;2022-10-16T00:38:15;8.60;;;4.95;;
50683;SDS011;36654;45.042;38.994;2022-10-16T00:40:41;7.90;;;4.57;;
50683;SDS011;36654;45.042;38.994;2022-10-16T00:43:14;6.55;;;4.93;;
50683;SDS011;36654;45.042;38.994;2022-10-16T00:46:19;8.05;;;4.88;;
50683;SDS011;36654;45.042;38.994;2022-10-16T00:51:23;9.18;;;5.65;;
50683;SDS011;36654;45.042;38.994;2022-10-16T00:53:55;8.77;;;5.38;;
50683;SDS011;36654;45.042;38.994;2022-10-16T00:56:21;6.47;;;4.65;;
50683;SDS011;36654;45.042;38.994;2022-10-16T00:58:47;8.10;;;4.50;;
50683;SDS011;36654;45.042;38.994;2022-10-16T01:01:13;6.95;;;4.30;;
50683;SDS011;36654;45.042;38.994;2022-10-16T01:03:39;9.68;;;4.88;;
50683;SDS011;36654;45.042;38.994;2022-10-16T01:06:08;5.75;;;4.60;;
50683;SDS011;36654;45.042;38.994;2022-10-16T01:08:58;6.82;;;4.80;;
50683;SDS011;36654;45.042;38.994;2022-10-16T01:14:08;5.30;;;4.32;;
50683;SDS011;36654;45.042;38.994;2022-10-16T01:16:45;7.85;;;4.43;;
50683;SDS011;36654;45.042;38.994;2022-10-16T01:21:51;5.97;;;4.20;;
50683;SDS011;36654;45.042;38.994;2022-10-16T01:24:27;6.30;;;4.25;;
50683;SDS011;36654;45.042;38.994;2022-10-16T01:34:54;6.00;;;4.20;;
50683;SDS011;36654;45.042;38.994;2022-10-16T01:37:32;7.50;;;5.20;;
50683;SDS011;36654;45.042;38.994;2022-10-16T01:40:05;8.95;;;4.75;;
50683;SDS011;36654;45.042;38.994;2022-10-16T01:42:36;5.93;;;4.10;;
50683;SDS011;36654;45.042;38.994;2022-10-16T01:45:09;9.00;;;4.60;;
50683;SDS011;36654;45.042;38.994;2022-10-16T01:47:38;7.78;;;4.60;;
50683;SDS011;36654;45.042;38.994;2022-10-16T01:50:05;6.28;;;4.75;;
50683;SDS011;36654;45.042;38.994;2022-10-16T01:52:34;7.13;;;4.13;;
50683;SDS011;36654;45.042;38.994;2022-10-16T01:55:03;6.82;;;4.35;;
50683;SDS011;36654;45.042;38.994;2022-10-16T01:57:33;5.32;;;4.50;;
50683;SDS011;36654;45.042;38.994;2022-10-16T02:00:04;8.32;;;4.47;;
50683;SDS011;36654;45.042;38.994;2022-10-16T02:02:33;6.18;;;4.10;;
50683;SDS011;36654;45.042;38.994;2022-10-16T02:07:44;5.75;;;4.40;;
50683;SDS011;36654;45.042;38.994;2022-10-16T02:10:09;5.95;;;4.45;;
50683;SDS011;36654;45.042;38.994;2022-10-16T02:12:36;8.95;;;4.82;;
50683;SDS011;36654;45.042;38.994;2022-10-16T02:15:06;6.43;;;4.78;;
50683;SDS011;36654;45.042;38.994;2022-10-16T02:17:32;5.63;;;4.30;;
50683;SDS011;36654;45.042;38.994;2022-10-16T02:19:57;6.15;;;4.70;;
50683;SDS011;36654;45.042;38.994;2022-10-16T02:22:30;6.32;;;4.05;;
50683;SDS011;36654;45.042;38.994;2022-10-16T02:25:08;9.43;;;5.00;;
50683;SDS011;36654;45.042;38.994;2022-10-16T02:33:05;8.35;;;5.30;;
50683;SDS011;36654;45.042;38.994;2022-10-16T02:35:34;9.05;;;4.72;;
50683;SDS011;36654;45.042;38.994;2022-10-16T02:38:01;7.82;;;4.97;;
50683;SDS011;36654;45.042;38.994;2022-10-16T02:40:28;8.13;;;5.05;;
50683;SDS011;36654;45.042;38.994;2022-10-16T02:42:54;5.80;;;5.00;;
50683;SDS011;36654;45.042;38.994;2022-10-16T02:45:20;7.25;;;4.30;;
50683;SDS011;36654;45.042;38.994;2022-10-16T02:47:47;7.07;;;4.20;;
50683;SDS011;36654;45.042;38.994;2022-10-16T02:50:13;7.18;;;5.20;;
50683;SDS011;36654;45.042;38.994;2022-10-16T02:52:39;9.13;;;5.40;;
50683;SDS011;36654;45.042;38.994;2022-10-16T02:55:05;6.97;;;4.53;;
50683;SDS011;36654;45.042;38.994;2022-10-16T02:57:30;6.05;;;4.07;;
50683;SDS011;36654;45.042;38.994;2022-10-16T02:59:56;6.35;;;4.13;;
50683;SDS011;36654;45.042;38.994;2022-10-16T03:02:22;5.75;;;4.28;;
50683;SDS011;36654;45.042;38.994;2022-10-16T03:04:48;5.20;;;4.47;;
50683;SDS011;36654;45.042;38.994;2022-10-16T03:07:14;7.15;;;4.85;;
50683;SDS011;36654;45.042;38.994;2022-10-16T03:09:40;7.45;;;5.38;;
50683;SDS011;36654;45.042;38.994;2022-10-16T03:12:06;6.47;;;4.63;;
50683;SDS011;36654;45.042;38.994;2022-10-16T03:14:31;8.57;;;4.47;;
50683;SDS011;36654;45.042;38.994;2022-10-16T03:16:57;6.13;;;4.53;;
50683;SDS011;36654;45.042;38.994;2022-10-16T03:19:23;7.03;;;4.05;;
50683;SDS011;36654;45.042;38.994;2022-10-16T03:21:48;5.65;;;4.25;;
50683;SDS011;36654;45.042;38.994;2022-10-16T03:24:14;6.07;;;4.60;;
50683;SDS011;36654;45.042;38.994;2022-10-16T03:26:40;6.63;;;4.10;;
50683;SDS011;36654;45.042;38.994;2022-10-16T03:29:06;4.80;;;3.97;;
50683;SDS011;36654;45.042;38.994;2022-10-16T03:31:31;6.93;;;4.63;;
50683;SDS011;36654;45.042;38.994;2022-10-16T03:33:57;10.10;;;4.47;;
50683;SDS011;36654;45.042;38.994;2022-10-16T03:36:23;6.50;;;4.40;;
50683;SDS011;36654;45.042;38.994;2022-10-16T03:38:49;7.28;;;4.57;;
50683;SDS011;36654;45.042;38.994;2022-10-16T03:41:14;6.28;;;4.07;;
50683;SDS011;36654;45.042;38.994;2022-10-16T03:43:40;6.70;;;5.00;;
50683;SDS011;36654;45.042;38.994;2022-10-16T03:46:06;7.32;;;4.82;;
50683;SDS011;36654;45.042;38.994;2022-10-16T03:48:32;6.72;;;4.85;;
50683;SDS011;36654;45.042;38.994;2022-10-16T03:50:57;8.63;;;4.15;;
50683;SDS011;36654;45.042;38.994;2022-10-16T03:53:23;7.30;;;5.18;;
50683;SDS011;36654;45.042;38.994;2022-10-16T03:55:49;6.43;;;4.90;;
50683;SDS011;36654;45.042;38.994;2022-10-16T03:58:15;5.97;;;4.30;;
50683;SDS011;36654;45.042;38.994;2022-10-16T04:00:44;7.10;;;4.68;;
50683;SDS011;36654;45.042;38.994;2022-10-16T04:03:11;7.43;;;4.35;;
50683;SDS011;36654;45.042;38.994;2022-10-16T04:05:37;7.57;;;4.72;;
50683;SDS011;36654;45.042;38.994;2022-10-16T04:08:03;6.22;;;4.45;;
50683;SDS011;36654;45.042;38.994;2022-10-16T04:10:29;6.03;;;4.15;;
50683;SDS011;36654;45.042;38.994;2022-10-16T04:12:54;7.75;;;4.50;;
50683;SDS011;36654;45.042;38.994;2022-10-16T04:15:21;7.68;;;4.85;;
50683;SDS011;36654;45.042;38.994;2022-10-16T04:17:47;8.15;;;5.00;;
50683;SDS011;36654;45.042;38.994;2022-10-16T04:20:13;7.47;;;4.60;;
50683;SDS011;36654;45.042;38.994;2022-10-16T04:22:39;9.15;;;4.60;;
50683;SDS011;36654;45.042;38.994;2022-10-16T04:25:05;6.88;;;4.75;;
50683;SDS011;36654;45.042;38.994;2022-10-16T04:27:31;7.70;;;4.45;;
50683;SDS011;36654;45.042;38.994;2022-10-16T04:29:57;8.85;;;4.88;;
50683;SDS011;36654;45.042;38.994;2022-10-16T04:32:25;7.95;;;5.05;;
50683;SDS011;36654;45.042;38.994;2022-10-16T04:34:52;8.02;;;5.03;;
50683;SDS011;36654;45.042;38.994;2022-10-16T04:37:18;11.52;;;5.47;;
50683;SDS011;36654;45.042;38.994;2022-10-16T04:39:44;7.60;;;5.18;;
50683;SDS011;36654;45.042;38.994;2022-10-16T04:42:10;9.43;;;5.55;;
50683;SDS011;36654;45.042;38.994;2022-10-16T04:44:36;9.13;;;5.70;;
50683;SDS011;36654;45.042;38.994;2022-10-16T04:47:02;10.65;;;6.20;;
50683;SDS011;36654;45.042;38.994;2022-10-16T04:49:27;10.05;;;6.05;;
50683;SDS011;36654;45.042;38.994;2022-10-16T04:51:53;8.73;;;5.45;;
50683;SDS011;36654;45.042;38.994;2022-10-16T04:54:19;10.55;;;5.93;;
50683;SDS011;36654;45.042;38.994;2022-10-16T04:56:44;10.43;;;6.10;;
50683;SDS011;36654;45.042;38.994;2022-10-16T04:59:15;10.93;;;5.30;;
50683;SDS011;36654;45.042;38.994;2022-10-16T05:01:41;7.93;;;4.53;;
50683;SDS011;36654;45.042;38.994;2022-10-16T05:04:06;9.05;;;5.53;;
50683;SDS011;36654;45.042;38.994;2022-10-16T05:06:32;8.05;;;5.20;;
50683;SDS011;36654;45.042;38.994;2022-10-16T05:08:58;8.95;;;5.38;;
50683;SDS011;36654;45.042;38.994;2022-10-16T05:11:24;12.63;;;5.55;;
50683;SDS011;36654;45.042;38.994;2022-10-16T05:13:49;9.75;;;5.53;;
50683;SDS011;36654;45.042;38.994;2022-10-16T05:16:15;6.75;;;5.13;;
50683;SDS011;36654;45.042;38.994;2022-10-16T05:18:41;6.38;;;4.82;;
50683;SDS011;36654;45.042;38.994;2022-10-16T05:21:06;6.95;;;5.53;;
50683;SDS011;36654;45.042;38.994;2022-10-16T05:23:32;7.70;;;4.53;;
50683;SDS011;36654;45.042;38.994;2022-10-16T05:25:58;6.82;;;4.85;;
50683;SDS011;36654;45.042;38.994;2022-10-16T05:28:25;7.18;;;5.65;;
50683;SDS011;36654;45.042;38.994;2022-10-16T05:30:52;6.57;;;4.65;;
50683;SDS011;36654;45.042;38.994;2022-10-16T05:33:22;8.77;;;4.95;;
50683;SDS011;36654;45.042;38.994;2022-10-16T05:35:50;6.25;;;4.43;;
50683;SDS011;36654;45.042;38.994;2022-10-16T05:38:16;8.05;;;5.35;;
50683;SDS011;36654;45.042;38.994;2022-10-16T05:40:42;7.50;;;5.03;;
50683;SDS011;36654;45.042;38.994;2022-10-16T05:43:08;8.15;;;4.93;;
50683;SDS011;36654;45.042;38.994;2022-10-16T05:45:34;8.30;;;4.72;;
50683;SDS011;36654;45.042;38.994;2022-10-16T05:47:59;10.70;;;4.97;;
50683;SDS011;36654;45.042;38.994;2022-10-16T05:50:26;7.40;;;4.63;;
50683;SDS011;36654;45.042;38.994;2022-10-16T05:52:52;5.95;;;4.60;;
50683;SDS011;36654;45.042;38.994;2022-10-16T05:55:18;6.45;;;4.47;;
50683;SDS011;36654;45.042;38.994;2022-10-16T05:57:43;11.40;;;5.53;;
50683;SDS011;36654;45.042;38.994;2022-10-16T06:00:09;12.27;;;4.78;;
50683;SDS011;36654;45.042;38.994;2022-10-16T06:02:35;7.32;;;4.38;;
50683;SDS011;36654;45.042;38.994;2022-10-16T06:05:01;6.80;;;5.03;;
50683;SDS011;36654;45.042;38.994;2022-10-16T06:07:27;7.88;;;5.00;;
50683;SDS011;36654;45.042;38.994;2022-10-16T06:09:52;7.15;;;4.38;;
50683;SDS011;36654;45.042;38.994;2022-10-16T06:12:19;8.70;;;5.15;;
50683;SDS011;36654;45.042;38.994;2022-10-16T06:14:45;5.55;;;4.55;;
50683;SDS011;36654;45.042;38.994;2022-10-16T06:19:40;6.65;;;4.65;;
50683;SDS011;36654;45.042;38.994;2022-10-16T06:22:08;9.82;;;4.63;;
50683;SDS011;36654;45.042;38.994;2022-10-16T06:24:35;7.15;;;4.75;;
50683;SDS011;36654;45.042;38.994;2022-10-16T06:32:36;7.97;;;4.68;;
50683;SDS011;36654;45.042;38.994;2022-10-16T06:35:09;10.05;;;4.53;;
50683;SDS011;36654;45.042;38.994;2022-10-16T06:37:38;6.05;;;4.20;;
50683;SDS011;36654;45.042;38.994;2022-10-16T06:40:07;5.68;;;4.22;;
50683;SDS011;36654;45.042;38.994;2022-10-16T06:45:12;7.90;;;4.40;;
50683;SDS011;36654;45.042;38.994;2022-10-16T06:47:41;7.60;;;3.63;;
50683;SDS011;36654;45.042;38.994;2022-10-16T06:50:16;7.85;;;4.40;;
50683;SDS011;36654;45.042;38.994;2022-10-16T06:52:42;6.15;;;4.28;;
50683;SDS011;36654;45.042;38.994;2022-10-16T06:57:45;8.15;;;4.30;;
50683;SDS011;36654;45.042;38.994;2022-10-16T07:00:15;5.32;;;3.97;;
50683;SDS011;36654;45.042;38.994;2022-10-16T07:02:41;7.60;;;4.30;;
50683;SDS011;36654;45.042;38.994;2022-10-16T07:05:28;6.03;;;3.88;;
50683;SDS011;36654;45.042;38.994;2022-10-16T07:07:56;6.63;;;4.18;;
50683;SDS011;36654;45.042;38.994;2022-10-16T07:10:22;5.28;;;3.55;;
50683;SDS011;36654;45.042;38.994;2022-10-16T07:12:51;8.10;;;3.97;;
50683;SDS011;36654;45.042;38.994;2022-10-16T07:15:26;7.57;;;4.78;;
50683;SDS011;36654;45.042;38.994;2022-10-16T07:17:53;6.20;;;4.15;;
50683;SDS011;36654;45.042;38.994;2022-10-16T07:20:20;6.82;;;4.80;;
50683;SDS011;36654;45.042;38.994;2022-10-16T07:25:28;11.65;;;4.47;;
50683;SDS011;36654;45.042;38.994;2022-10-16T07:27:53;6.18;;;3.92;;
50683;SDS011;36654;45.042;38.994;2022-10-16T07:30:21;7.00;;;4.20;;
50683;SDS011;36654;45.042;38.994;2022-10-16T07:32:48;10.15;;;4.60;;
50683;SDS011;36654;45.042;38.994;2022-10-16T07:35:15;13.18;;;4.82;;
50683;SDS011;36654;45.042;38.994;2022-10-16T07:37:45;10.75;;;6.50;;
50683;SDS011;36654;45.042;38.994;2022-10-16T07:40:35;7.35;;;4.70;;
50683;SDS011;36654;45.042;38.994;2022-10-16T07:43:05;8.32;;;4.90;;
50683;SDS011;36654;45.042;38.994;2022-10-16T07:45:34;7.40;;;5.07;;
50683;SDS011;36654;45.042;38.994;2022-10-16T07:48:02;6.45;;;4.47;;
50683;SDS011;36654;45.042;38.994;2022-10-16T07:50:35;10.52;;;4.85;;
50683;SDS011;36654;45.042;38.994;2022-10-16T07:53:00;6.85;;;4.93;;
50683;SDS011;36654;45.042;38.994;2022-10-16T07:55:26;8.13;;;4.82;;
50683;SDS011;36654;45.042;38.994;2022-10-16T07:57:58;8.45;;;5.13;;
50683;SDS011;36654;45.042;38.994;2022-10-16T08:00:29;10.20;;;5.15;;
50683;SDS011;36654;45.042;38.994;2022-10-16T08:02:58;7.15;;;5.18;;
50683;SDS011;36654;45.042;38.994;2022-10-16T08:05:29;9.05;;;5.10;;
50683;SDS011;36654;45.042;38.994;2022-10-16T08:08:01;12.68;;;5.43;;
50683;SDS011;36654;45.042;38.994;2022-10-16T08:10:28;8.68;;;5.10;;
50683;SDS011;36654;45.042;38.994;2022-10-16T08:12:54;10.10;;;5.32;;
50683;SDS011;36654;45.042;38.994;2022-10-16T08:15:20;11.35;;;5.00;;
50683;SDS011;36654;45.042;38.994;2022-10-16T08:17:55;7.68;;;4.90;;
50683;SDS011;36654;45.042;38.994;2022-10-16T08:20:22;8.23;;;5.15;;
50683;SDS011;36654;45.042;38.994;2022-10-16T08:22:48;6.60;;;4.88;;
50683;SDS011;36654;45.042;38.994;2022-10-16T08:25:13;9.52;;;5.25;;
50683;SDS011;36654;45.042;38.994;2022-10-16T08:27:40;9.30;;;5.05;;
50683;SDS011;36654;45.042;38.994;2022-10-16T08:30:07;7.68;;;5.40;;
50683;SDS011;36654;45.042;38.994;2022-10-16T08:32:33;4.97;;;4.47;;
50683;SDS011;36654;45.042;38.994;2022-10-16T08:34:59;5.50;;;4.50;;
50683;SDS011;36654;45.042;38.994;2022-10-16T08:37:24;7.60;;;4.60;;
50683;SDS011;36654;45.042;38.994;2022-10-16T08:39:54;8.90;;;5.25;;
50683;SDS011;36654;45.042;38.994;2022-10-16T08:50:36;5.47;;;4.53;;
50683;SDS011;36654;45.042;38.994;2022-10-16T08:53:04;11.55;;;5.38;;
50683;SDS011;36654;45.042;38.994;2022-10-16T08:58:38;7.13;;;4.68;;
50683;SDS011;36654;45.042;38.994;2022-10-16T09:00:59;8.93;;;5.15;;
50683;SDS011;36654;45.042;38.994;2022-10-16T09:06:17;12.05;;;6.88;;
50683;SDS011;36654;45.042;38.994;2022-10-16T09:14:30;7.65;;;5.25;;
50683;SDS011;36654;45.042;38.994;2022-10-16T09:20:42;9.65;;;5.05;;
50683;SDS011;36654;45.042;38.994;2022-10-16T09:22:47;12.27;;;5.85;;
50683;SDS011;36654;45.042;38.994;2022-10-16T09:25:17;11.00;;;5.93;;
50683;SDS011;36654;45.042;38.994;2022-10-16T09:27:47;13.82;;;6.28;;
50683;SDS011;36654;45.042;38.994;2022-10-16T09:30:15;12.48;;;5.43;;
50683;SDS011;36654;45.042;38.994;2022-10-16T09:32:46;8.05;;;5.32;;
50683;SDS011;36654;45.042;38.994;2022-10-16T09:35:19;9.68;;;5.53;;
50683;SDS011;36654;45.042;38.994;2022-10-16T09:37:51;8.15;;;6.07;;
50683;SDS011;36654;45.042;38.994;2022-10-16T09:40:27;8.98;;;5.85;;
50683;SDS011;36654;45.042;38.994;2022-10-16T09:42:57;8.15;;;5.85;;
50683;SDS011;36654;45.042;38.994;2022-10-16T09:47:53;8.02;;;5.63;;
50683;SDS011;36654;45.042;38.994;2022-10-16T09:50:26;9.20;;;5.95;;
50683;SDS011;36654;45.042;38.994;2022-10-16T09:53:03;8.40;;;5.70;;
50683;SDS011;36654;45.042;38.994;2022-10-16T09:55:31;13.75;;;5.65;;
50683;SDS011;36654;45.042;38.994;2022-10-16T09:57:57;9.52;;;6.10;;
50683;SDS011;36654;45.042;38.994;2022-10-16T10:00:23;9.30;;;5.97;;
50683;SDS011;36654;45.042;38.994;2022-10-16T10:02:49;7.93;;;6.03;;
50683;SDS011;36654;45.042;38.994;2022-10-16T10:05:26;10.82;;;6.22;;
50683;SDS011;36654;45.042;38.994;2022-10-16T10:07:55;10.38;;;5.90;;
50683;SDS011;36654;45.042;38.994;2022-10-16T10:10:30;7.20;;;5.53;;
50683;SDS011;36654;45.042;38.994;2022-10-16T10:12:58;9.57;;;5.57;;
50683;SDS011;36654;45.042;38.994;2022-10-16T10:15:24;9.27;;;5.90;;
50683;SDS011;36654;45.042;38.994;2022-10-16T10:17:56;10.70;;;5.60;;
50683;SDS011;36654;45.042;38.994;2022-10-16T10:20:27;10.90;;;6.15;;
50683;SDS011;36654;45.042;38.994;2022-10-16T10:22:56;8.70;;;5.40;;
50683;SDS011;36654;45.042;38.994;2022-10-16T10:25:28;27.83;;;7.10;;
50683;SDS011;36654;45.042;38.994;2022-10-16T10:33:54;7.78;;;4.85;;
50683;SDS011;36654;45.042;38.994;2022-10-16T10:36:30;7.45;;;5.22;;
50683;SDS011;36654;45.042;38.994;2022-10-16T10:39:12;10.23;;;5.25;;
50683;SDS011;36654;45.042;38.994;2022-10-16T10:42:01;11.90;;;6.65;;
50683;SDS011;36654;45.042;38.994;2022-10-16T10:47:46;6.85;;;5.80;;
50683;SDS011;36654;45.042;38.994;2022-10-16T10:50:26;9.43;;;5.13;;
50683;SDS011;36654;45.042;38.994;2022-10-16T10:55:48;7.13;;;4.78;;
50683;SDS011;36654;45.042;38.994;2022-10-16T11:01:20;8.65;;;5.18;;
50683;SDS011;36654;45.042;38.994;2022-10-16T11:07:08;7.50;;;4.78;;
50683;SDS011;36654;45.042;38.994;2022-10-16T11:09:40;8.68;;;5.18;;
50683;SDS011;36654;45.042;38.994;2022-10-16T11:12:20;10.05;;;5.32;;
50683;SDS011;36654;45.042;38.994;2022-10-16T11:14:56;8.30;;;5.28;;
50683;SDS011;36654;45.042;38.994;2022-10-16T11:17:38;9.43;;;5.35;;
50683;SDS011;36654;45.042;38.994;2022-10-16T11:20:12;6.35;;;4.65;;
50683;SDS011;36654;45.042;38.994;2022-10-16T11:22:50;5.97;;;4.30;;
50683;SDS011;36654;45.042;38.994;2022-10-16T11:25:35;6.88;;;4.68;;
50683;SDS011;36654;45.042;38.994;2022-10-16T11:28:02;8.60;;;4.65;;
50683;SDS011;36654;45.042;38.994;2022-10-16T11:36:31;11.05;;;4.78;;
50683;SDS011;36654;45.042;38.994;2022-10-16T11:39:11;7.68;;;4.10;;
50683;SDS011;36654;45.042;38.994;2022-10-16T11:45:00;4.85;;;4.07;;
50683;SDS011;36654;45.042;38.994;2022-10-16T11:47:41;8.30;;;4.13;;
50683;SDS011;36654;45.042;38.994;2022-10-16T11:55:36;5.20;;;3.67;;
50683;SDS011;36654;45.042;38.994;2022-10-16T11:58:05;7.45;;;3.85;;
50683;SDS011;36654;45.042;38.994;2022-10-16T12:03:32;5.80;;;3.92;;
50683;SDS011;36654;45.042;38.994;2022-10-16T12:06:15;9.15;;;3.65;;
50683;SDS011;36654;45.042;38.994;2022-10-16T12:08:53;5.93;;;3.60;;
50683;SDS011;36654;45.042;38.994;2022-10-16T12:11:31;6.40;;;4.32;;
50683;SDS011;36654;45.042;38.994;2022-10-16T12:16:54;10.57;;;4.97;;
50683;SDS011;36654;45.042;38.994;2022-10-16T12:19:26;8.13;;;3.90;;
50683;SDS011;36654;45.042;38.994;2022-10-16T12:21:59;3.88;;;3.47;;
50683;SDS011;36654;45.042;38.994;2022-10-16T12:24:39;6.65;;;4.22;;
50683;SDS011;36654;45.042;38.994;2022-10-16T12:30:03;4.80;;;3.55;;
50683;SDS011;36654;45.042;38.994;2022-10-16T12:32:31;10.68;;;4.88;;
50683;SDS011;36654;45.042;38.994;2022-10-16T12:35:02;6.07;;;3.90;;
50683;SDS011;36654;45.042;38.994;2022-10-16T12:37:34;8.32;;;3.47;;
50683;SDS011;36654;45.042;38.994;2022-10-16T12:40:15;5.13;;;3.05;;
50683;SDS011;36654;45.042;38.994;2022-10-16T12:42:50;4.68;;;3.00;;
50683;SDS011;36654;45.042;38.994;2022-10-16T12:45:32;3.10;;;2.78;;
50683;SDS011;36654;45.042;38.994;2022-10-16T12:48:00;3.88;;;2.65;;
50683;SDS011;36654;45.042;38.994;2022-10-16T12:53:00;11.05;;;3.03;;
50683;SDS011;36654;45.042;38.994;2022-10-16T12:55:27;6.47;;;2.90;;
50683;SDS011;36654;45.042;38.994;2022-10-16T13:03:50;4.72;;;3.40;;
50683;SDS011;36654;45.042;38.994;2022-10-16T13:25:27;6.05;;;3.55;;
50683;SDS011;36654;45.042;38.994;2022-10-16T13:28:04;6.97;;;2.80;;
50683;SDS011;36654;45.042;38.994;2022-10-16T13:33:20;7.60;;;2.90;;
50683;SDS011;36654;45.042;38.994;2022-10-16T13:35:53;9.68;;;2.83;;
50683;SDS011;36654;45.042;38.994;2022-10-16T13:38:21;7.15;;;3.35;;
50683;SDS011;36654;45.042;38.994;2022-10-16T13:43:23;5.03;;;3.70;;
50683;SDS011;36654;45.042;38.994;2022-10-16T13:45:58;5.07;;;3.03;;
50683;SDS011;36654;45.042;38.994;2022-10-16T13:48:44;7.85;;;3.55;;
50683;SDS011;36654;45.042;38.994;2022-10-16T13:51:21;5.07;;;3.70;;
50683;SDS011;36654;45.042;38.994;2022-10-16T13:53:51;7.72;;;4.20;;
50683;SDS011;36654;45.042;38.994;2022-10-16T13:56:19;10.18;;;4.25;;
50683;SDS011;36654;45.042;38.994;2022-10-16T13:58:57;12.82;;;4.05;;
50683;SDS011;36654;45.042;38.994;2022-10-16T14:01:28;6.40;;;3.78;;
50683;SDS011;36654;45.042;38.994;2022-10-16T14:04:06;5.40;;;3.97;;
50683;SDS011;36654;45.042;38.994;2022-10-16T14:06:34;6.55;;;3.72;;
50683;SDS011;36654;45.042;38.994;2022-10-16T14:09:07;7.05;;;3.90;;
50683;SDS011;36654;45.042;38.994;2022-10-16T14:11:59;4.47;;;4.00;;
50683;SDS011;36654;45.042;38.994;2022-10-16T14:14:26;15.38;;;5.30;;
50683;SDS011;36654;45.042;38.994;2022-10-16T14:39:21;12.23;;;6.07;;
50683;SDS011;36654;45.042;38.994;2022-10-16T14:41:49;9.23;;;6.35;;
50683;SDS011;36654;45.042;38.994;2022-10-16T14:44:19;12.55;;;5.55;;
50683;SDS011;36654;45.042;38.994;2022-10-16T14:46:52;11.93;;;4.95;;
50683;SDS011;36654;45.042;38.994;2022-10-16T14:49:18;12.00;;;4.88;;
50683;SDS011;36654;45.042;38.994;2022-10-16T14:51:46;7.13;;;4.63;;
50683;SDS011;36654;45.042;38.994;2022-10-16T14:54:12;7.65;;;4.00;;
50683;SDS011;36654;45.042;38.994;2022-10-16T14:56:52;7.50;;;4.68;;
50683;SDS011;36654;45.042;38.994;2022-10-16T14:59:22;5.65;;;4.18;;
50683;SDS011;36654;45.042;38.994;2022-10-16T15:04:19;9.25;;;4.45;;
50683;SDS011;36654;45.042;38.994;2022-10-16T15:06:45;6.88;;;4.35;;
50683;SDS011;36654;45.042;38.994;2022-10-16T15:09:11;6.32;;;4.32;;
50683;SDS011;36654;45.042;38.994;2022-10-16T15:11:36;8.68;;;4.70;;
50683;SDS011;36654;45.042;38.994;2022-10-16T15:14:02;11.00;;;4.60;;
50683;SDS011;36654;45.042;38.994;2022-10-16T15:16:29;12.63;;;5.35;;
50683;SDS011;36654;45.042;38.994;2022-10-16T15:18:55;8.32;;;4.68;;
50683;SDS011;36654;45.042;38.994;2022-10-16T15:23:52;8.15;;;4.70;;
50683;SDS011;36654;45.042;38.994;2022-10-16T15:26:17;8.82;;;5.25;;
50683;SDS011;36654;45.042;38.994;2022-10-16T15:28:43;9.30;;;5.32;;
50683;SDS011;36654;45.042;38.994;2022-10-16T15:31:09;9.98;;;5.32;;
50683;SDS011;36654;45.042;38.994;2022-10-16T15:33:34;15.45;;;7.20;;
50683;SDS011;36654;45.042;38.994;2022-10-16T15:36:01;12.35;;;6.40;;
50683;SDS011;36654;45.042;38.994;2022-10-16T15:38:28;14.32;;;6.20;;
50683;SDS011;36654;45.042;38.994;2022-10-16T15:40:54;11.50;;;5.57;;
50683;SDS011;36654;45.042;38.994;2022-10-16T15:43:20;8.68;;;5.72;;
50683;SDS011;36654;45.042;38.994;2022-10-16T15:46:08;10.48;;;5.65;;
50683;SDS011;36654;45.042;38.994;2022-10-16T15:48:37;8.45;;;5.45;;
50683;SDS011;36654;45.042;38.994;2022-10-16T15:51:04;10.38;;;5.10;;
50683;SDS011;36654;45.042;38.994;2022-10-16T15:56:00;7.72;;;4.28;;
50683;SDS011;36654;45.042;38.994;2022-10-16T15:58:27;10.05;;;4.65;;
50683;SDS011;36654;45.042;38.994;2022-10-16T16:00:54;7.88;;;5.32;;
50683;SDS011;36654;45.042;38.994;2022-10-16T16:03:21;8.95;;;4.68;;
50683;SDS011;36654;45.042;38.994;2022-10-16T16:05:46;10.40;;;4.28;;
50683;SDS011;36654;45.042;38.994;2022-10-16T16:08:12;9.20;;;3.72;;
50683;SDS011;36654;45.042;38.994;2022-10-16T16:10:38;9.13;;;4.15;;
50683;SDS011;36654;45.042;38.994;2022-10-16T16:13:03;7.97;;;3.70;;
50683;SDS011;36654;45.042;38.994;2022-10-16T16:15:29;6.25;;;3.47;;
50683;SDS011;36654;45.042;38.994;2022-10-16T16:17:55;6.93;;;3.85;;
50683;SDS011;36654;45.042;38.994;2022-10-16T16:20:20;7.18;;;3.70;;
50683;SDS011;36654;45.042;38.994;2022-10-16T16:22:46;5.90;;;3.97;;
50683;SDS011;36654;45.042;38.994;2022-10-16T16:25:13;8.82;;;3.88;;
50683;SDS011;36654;45.042;38.994;2022-10-16T16:27:39;6.95;;;3.55;;
50683;SDS011;36654;45.042;38.994;2022-10-16T16:30:09;4.72;;;3.10;;
50683;SDS011;36654;45.042;38.994;2022-10-16T16:32:36;3.17;;;2.85;;
50683;SDS011;36654;45.042;38.994;2022-10-16T16:35:02;3.80;;;3.17;;
50683;SDS011;36654;45.042;38.994;2022-10-16T16:37:30;7.72;;;3.08;;
50683;SDS011;36654;45.042;38.994;2022-10-16T16:39:55;4.25;;;2.97;;
50683;SDS011;36654;45.042;38.994;2022-10-16T16:42:24;3.20;;;2.90;;
50683;SDS011;36654;45.042;38.994;2022-10-16T16:44:50;3.22;;;2.92;;
50683;SDS011;36654;45.042;38.994;2022-10-16T16:47:16;4.30;;;3.10;;
50683;SDS011;36654;45.042;38.994;2022-10-16T16:49:42;3.88;;;2.90;;
50683;SDS011;36654;45.042;38.994;2022-10-16T16:52:07;5.95;;;3.10;;
50683;SDS011;36654;45.042;38.994;2022-10-16T16:54:33;6.07;;;3.03;;
50683;SDS011;36654;45.042;38.994;2022-10-16T16:56:59;5.22;;;3.33;;
50683;SDS011;36654;45.042;38.994;2022-10-16T16:59:24;4.57;;;2.70;;
50683;SDS011;36654;45.042;38.994;2022-10-16T17:01:50;3.35;;;3.03;;
50683;SDS011;36654;45.042;38.994;2022-10-16T17:04:16;4.70;;;3.58;;
50683;SDS011;36654;45.042;38.994;2022-10-16T17:06:42;2.58;;;2.35;;
50683;SDS011;36654;45.042;38.994;2022-10-16T17:09:07;4.28;;;3.40;;
50683;SDS011;36654;45.042;38.994;2022-10-16T17:11:34;4.57;;;3.40;;
50683;SDS011;36654;45.042;38.994;2022-10-16T17:14:00;3.50;;;3.20;;
50683;SDS011;36654;45.042;38.994;2022-10-16T17:16:33;3.75;;;2.70;;
50683;SDS011;36654;45.042;38.994;2022-10-16T17:19:02;4.05;;;2.70;;
50683;SDS011;36654;45.042;38.994;2022-10-16T17:21:29;2.88;;;2.55;;
50683;SDS011;36654;45.042;38.994;2022-10-16T17:23:57;2.97;;;2.70;;
50683;SDS011;36654;45.042;38.994;2022-10-16T17:26:23;3.78;;;2.83;;
50683;SDS011;36654;45.042;38.994;2022-10-16T17:28:53;4.70;;;2.60;;
50683;SDS011;36654;45.042;38.994;2022-10-16T17:31:22;4.35;;;2.97;;
50683;SDS011;36654;45.042;38.994;2022-10-16T17:33:49;3.95;;;2.85;;